DA16 weather

Tindouf East Airport
Tindouf Province, Algeria

Public forecast

Using degrees Celsius for public forecast. Weather courtesy of forecast.io.

METAR (pilot weather report)

Closest report is Tindouf Airport, 36.1 nm (66.9 km) W. Retrieved 2019/05/24 10:00 UTC (18 minutes ago):

DAOF 241000Z 11014KT 7000 NSC 33/06 Q1012

TAF (pilot weather forecast)

Forecast is more than 12 hours old.

Closest forecast is Tindouf Airport, 36.1 nm (66.9 km) W. Retrieved 2017/11/09 18:03 UTC (2 years ago):

TAF DAOF 091700Z 0918/1009 32010KT 9999 SCT040 BKN100 PROB30 TEMPO 0918/0921 FEW033CB